Terminal Aerodrome Forecast
Issued by NWS

Home | Current Version | Previous Version | Text Only | Print | Product List | Glossary On
Versions: 1 2 3 4 5 6 7 8 9 10 11 12 13 14
000
FTUS45 KTFX 280532
TAFGTF
TAF
KGTF 280532Z 2806/2906 23008KT P6SM BKN180
     FM281800 30009G19KT P6SM SCT110 BKN180
     FM290100 02008KT P6SM SCT180=

USA.gov is the U.S. government's official web portal to all federal, state and local government web resources and services.